createdAt,value
2023-04-04T00:00:17.050Z,3.64
2023-04-04T00:02:43.548Z,3.55
2023-04-04T00:05:10.039Z,3.61
2023-04-04T00:07:36.630Z,3.47
2023-04-04T00:10:03.307Z,3.56
2023-04-04T00:12:30.034Z,3.62
2023-04-04T00:14:57.445Z,3.62
2023-04-04T00:17:23.948Z,3.52
2023-04-04T00:19:50.627Z,3.51
2023-04-04T00:22:18.202Z,3.46
2023-04-04T00:24:44.595Z,3.45
2023-04-04T00:27:11.264Z,3.41
2023-04-04T00:29:37.880Z,3.35
2023-04-04T00:32:04.324Z,3.42
2023-04-04T00:34:31.169Z,3.27
2023-04-04T00:36:58.696Z,3.40
2023-04-04T00:39:26.589Z,3.39
2023-04-04T00:41:53.221Z,3.28
2023-04-04T00:44:20.495Z,3.22
2023-04-04T00:46:46.940Z,3.27
2023-04-04T00:49:13.379Z,3.23
2023-04-04T00:51:39.939Z,3.21
2023-04-04T00:54:06.620Z,3.28
2023-04-04T00:56:37.252Z,3.10
2023-04-04T00:59:03.858Z,3.18
2023-04-04T01:01:31.655Z,3.09
2023-04-04T01:03:58.415Z,3.24
2023-04-04T01:06:26.543Z,3.27
2023-04-04T01:08:54.322Z,3.20
2023-04-04T01:11:21.326Z,3.09
2023-04-04T01:13:48.137Z,3.15
2023-04-04T01:16:15.800Z,3.16
2023-04-04T01:18:43.717Z,3.04
2023-04-04T01:21:13.248Z,2.95
2023-04-04T01:24:02.209Z,3.01
2023-04-04T01:26:29.720Z,3.01
2023-04-04T01:28:59.706Z,2.94
2023-04-04T01:31:32.841Z,2.97
2023-04-04T01:34:04.262Z,2.96
2023-04-04T01:36:36.972Z,2.78
2023-04-04T01:39:24.752Z,2.79
2023-04-04T01:41:51.906Z,2.75
2023-04-04T01:44:18.953Z,2.75
2023-04-04T01:46:45.345Z,2.50
2023-04-04T01:49:12.052Z,2.53
2023-04-04T01:51:39.132Z,2.56
2023-04-04T01:54:05.766Z,2.65
2023-04-04T01:56:34.459Z,2.60
2023-04-04T01:59:01.508Z,2.61
2023-04-04T02:01:28.377Z,2.67
2023-04-04T02:03:55.048Z,2.62
2023-04-04T02:06:21.445Z,2.52
2023-04-04T02:08:48.210Z,2.55
2023-04-04T02:11:14.772Z,2.52
2023-04-04T02:13:44.351Z,2.59
2023-04-04T02:16:10.954Z,2.66
2023-04-04T02:18:37.905Z,2.51
2023-04-04T02:21:04.470Z,2.58
2023-04-04T02:23:31.124Z,2.50
2023-04-04T02:25:57.659Z,2.50
2023-04-04T02:28:24.268Z,2.43
2023-04-04T02:30:50.755Z,2.60
2023-04-04T02:33:17.315Z,2.50
2023-04-04T02:35:43.739Z,2.28
2023-04-04T02:38:10.219Z,2.43
2023-04-04T02:40:39.601Z,2.42
2023-04-04T02:43:06.331Z,2.20
2023-04-04T02:45:32.788Z,2.28
2023-04-04T02:47:59.816Z,2.34
2023-04-04T02:50:26.286Z,2.31
2023-04-04T02:52:54.894Z,2.22
2023-04-04T02:55:21.503Z,2.27
2023-04-04T02:57:52.470Z,2.25
2023-04-04T03:00:19.615Z,2.23
2023-04-04T03:02:49.966Z,2.23
2023-04-04T03:05:16.439Z,1.99
2023-04-04T03:07:42.853Z,2.15
2023-04-04T03:10:11.072Z,2.20
2023-04-04T03:12:37.519Z,2.10
2023-04-04T03:15:05.469Z,1.96
2023-04-04T03:17:32.860Z,1.84
2023-04-04T03:19:59.348Z,1.98
2023-04-04T03:22:25.714Z,2.17
2023-04-04T03:24:52.328Z,2.14
2023-04-04T03:27:18.725Z,2.17
2023-04-04T03:29:45.114Z,2.17
2023-04-04T03:32:11.854Z,1.92
2023-04-04T03:34:38.896Z,2.10
2023-04-04T03:37:05.301Z,1.98
2023-04-04T03:39:31.853Z,1.88
2023-04-04T03:41:58.523Z,1.91
2023-04-04T03:44:24.975Z,1.89
2023-04-04T03:46:51.889Z,1.96
2023-04-04T03:49:18.427Z,1.93
2023-04-04T03:51:44.891Z,1.83
2023-04-04T03:54:11.457Z,1.76
2023-04-04T03:56:37.945Z,1.70
2023-04-04T03:59:04.560Z,1.84
2023-04-04T04:01:31.060Z,1.82
2023-04-04T04:03:57.950Z,1.71
2023-04-04T04:06:24.452Z,1.78
2023-04-04T04:08:51.913Z,1.84
2023-04-04T04:11:18.495Z,1.66
2023-04-04T04:13:45.015Z,1.67
2023-04-04T04:16:11.441Z,1.78
2023-04-04T04:18:38.004Z,1.77
2023-04-04T04:21:05.119Z,1.86
2023-04-04T04:23:31.663Z,1.61
2023-04-04T04:25:58.331Z,1.63
2023-04-04T04:28:33.302Z,1.70
2023-04-04T04:31:08.056Z,1.55
2023-04-04T04:33:36.051Z,1.73
2023-04-04T04:36:07.104Z,1.64
2023-04-04T04:38:33.752Z,1.65
2023-04-04T04:41:00.735Z,1.52
2023-04-04T04:43:27.738Z,1.45
2023-04-04T04:45:54.304Z,1.56
2023-04-04T04:48:21.003Z,1.37
2023-04-04T04:50:48.164Z,1.39
2023-04-04T04:53:15.150Z,1.46
2023-04-04T04:55:45.499Z,1.43
2023-04-04T04:58:12.783Z,1.59
2023-04-04T05:00:39.786Z,1.67
2023-04-04T05:03:09.060Z,1.69
2023-04-04T05:05:36.274Z,1.62
2023-04-04T05:08:03.720Z,1.63
2023-04-04T05:10:31.177Z,1.64
2023-04-04T05:12:57.887Z,1.65
2023-04-04T05:15:25.976Z,1.55
2023-04-04T05:17:53.904Z,1.59
2023-04-04T05:20:20.761Z,1.66
2023-04-04T05:22:48.554Z,1.50
2023-04-04T05:25:16.896Z,1.56
2023-04-04T05:27:48.093Z,1.54
2023-04-04T05:30:15.130Z,1.51
2023-04-04T05:32:41.766Z,1.72
2023-04-04T05:35:08.646Z,1.71
2023-04-04T05:37:39.010Z,1.74
2023-04-04T05:40:07.057Z,1.79
2023-04-04T05:42:33.589Z,1.64
2023-04-04T05:45:00.040Z,1.66
2023-04-04T05:47:26.499Z,1.63
2023-04-04T05:49:52.908Z,1.57
2023-04-04T05:52:19.339Z,1.58
2023-04-04T05:54:46.125Z,1.61
2023-04-04T05:57:12.538Z,1.78
2023-04-04T05:59:38.947Z,1.81
2023-04-04T06:02:05.527Z,1.81
2023-04-04T06:04:31.896Z,1.88
2023-04-04T06:06:58.417Z,1.96
2023-04-04T06:09:24.910Z,1.89
2023-04-04T06:11:51.541Z,2.09
2023-04-04T06:14:17.906Z,1.97
2023-04-04T06:16:44.582Z,2.05
2023-04-04T06:19:11.259Z,2.07
2023-04-04T06:21:37.714Z,2.04
2023-04-04T06:24:04.964Z,2.13
2023-04-04T06:26:31.316Z,2.09
2023-04-04T06:28:57.733Z,2.27
2023-04-04T06:31:24.975Z,2.37
2023-04-04T06:33:51.489Z,2.50
2023-04-04T06:36:17.937Z,2.67
2023-04-04T06:38:44.373Z,2.79
2023-04-04T06:41:11.056Z,2.92
2023-04-04T06:43:37.836Z,2.96
2023-04-04T06:46:04.504Z,3.01
2023-04-04T06:48:31.239Z,3.05
2023-04-04T06:50:57.697Z,3.15
2023-04-04T06:53:28.379Z,3.27
2023-04-04T06:55:54.912Z,3.30
2023-04-04T06:58:21.410Z,3.28
2023-04-04T07:00:47.926Z,3.28
2023-04-04T07:03:14.455Z,3.39
2023-04-04T07:05:41.618Z,3.49
2023-04-04T07:08:08.929Z,3.37
2023-04-04T07:10:35.547Z,3.60
2023-04-04T07:13:02.124Z,3.69
2023-04-04T07:15:28.639Z,3.94
2023-04-04T07:17:55.153Z,4.08
2023-04-04T07:20:21.676Z,4.22
2023-04-04T07:22:48.688Z,4.53
2023-04-04T07:25:15.392Z,4.71
2023-04-04T07:27:41.982Z,4.99
2023-04-04T07:30:08.950Z,5.28
2023-04-04T07:32:35.833Z,5.49
2023-04-04T07:35:02.596Z,5.58
2023-04-04T07:37:29.074Z,6.57
2023-04-04T07:39:55.803Z,7.26
2023-04-04T07:45:24.801Z,8.19
2023-04-04T07:47:52.239Z,8.51
2023-04-04T07:50:19.074Z,8.95
2023-04-04T07:52:54.603Z,9.39
2023-04-04T07:55:22.989Z,9.20
2023-04-04T07:57:50.159Z,9.63
2023-04-04T08:00:21.821Z,9.66
2023-04-04T08:02:53.803Z,9.65
2023-04-04T08:05:24.193Z,10.18
2023-04-04T08:07:56.545Z,10.51
2023-04-04T08:10:23.198Z,11.31
2023-04-04T08:12:51.254Z,11.29
2023-04-04T08:15:17.896Z,11.53
2023-04-04T08:17:52.135Z,11.76
2023-04-04T08:20:25.156Z,11.77
2023-04-04T08:23:23.315Z,11.75
2023-04-04T08:26:17.678Z,11.59
2023-04-04T08:28:45.653Z,11.66
2023-04-04T08:31:13.695Z,11.79
2023-04-04T08:33:47.140Z,12.40
2023-04-04T08:36:16.377Z,12.22
2023-04-04T08:38:52.825Z,11.28
2023-04-04T08:41:19.633Z,12.17
2023-04-04T08:43:49.035Z,12.15
2023-04-04T08:46:25.718Z,12.40
2023-04-04T08:48:52.819Z,13.01
2023-04-04T08:51:22.098Z,13.07
2023-04-04T08:53:48.782Z,13.66
2023-04-04T08:56:15.278Z,12.17
2023-04-04T08:58:41.832Z,13.63
2023-04-04T09:01:08.544Z,13.42
2023-04-04T09:03:37.473Z,13.06
2023-04-04T09:06:04.919Z,13.27
2023-04-04T09:08:32.039Z,13.89
2023-04-04T09:11:02.838Z,13.72
2023-04-04T09:13:29.748Z,13.72
2023-04-04T09:15:57.431Z,13.95
2023-04-04T09:18:23.891Z,14.10
2023-04-04T09:20:50.523Z,14.52
2023-04-04T09:23:21.320Z,14.45
2023-04-04T09:26:03.191Z,14.07
2023-04-04T09:28:31.334Z,14.52
2023-04-04T09:31:02.067Z,15.60
2023-04-04T09:33:28.824Z,15.02
2023-04-04T09:35:58.956Z,15.66
2023-04-04T09:38:27.058Z,16.23
2023-04-04T09:40:55.169Z,15.20
2023-04-04T09:43:25.892Z,15.69
2023-04-04T09:45:55.181Z,16.15
2023-04-04T09:48:32.405Z,15.00
2023-04-04T09:50:59.358Z,13.26
2023-04-04T09:53:26.253Z,15.31
2023-04-04T09:55:56.646Z,15.46
2023-04-04T09:58:28.330Z,15.46
2023-04-04T10:01:00.218Z,15.65
2023-04-04T10:03:27.869Z,16.20
2023-04-04T10:06:06.423Z,15.44
2023-04-04T10:08:34.992Z,16.30
2023-04-04T10:13:42.341Z,15.33
2023-04-04T10:16:10.584Z,16.42
2023-04-04T10:18:37.626Z,17.33
2023-04-04T10:23:38.658Z,15.52
2023-04-04T10:26:06.248Z,16.38
2023-04-04T10:28:36.012Z,16.09
2023-04-04T10:31:17.523Z,15.84
2023-04-04T10:34:11.220Z,16.15
2023-04-04T10:36:45.949Z,16.41
2023-04-04T10:39:29.179Z,16.86
2023-04-04T10:41:56.888Z,15.02
2023-04-04T10:44:31.848Z,16.54
2023-04-04T10:47:04.403Z,17.12
2023-04-04T10:49:31.806Z,17.61
2023-04-04T10:51:58.594Z,16.89
2023-04-04T10:54:27.704Z,16.82
2023-04-04T10:56:56.606Z,17.40
2023-04-04T10:59:25.368Z,17.52
2023-04-04T11:02:03.124Z,17.46
2023-04-04T11:04:39.301Z,17.39
2023-04-04T11:07:15.089Z,17.34
2023-04-04T11:09:57.193Z,17.62
2023-04-04T11:12:31.554Z,17.75
2023-04-04T11:15:04.270Z,17.84
2023-04-04T11:17:58.398Z,17.25
2023-04-04T11:20:28.909Z,16.95
2023-04-04T11:23:17.144Z,16.64
2023-04-04T11:25:51.199Z,16.86
2023-04-04T11:28:48.784Z,15.87
2023-04-04T11:31:18.330Z,17.00
2023-04-04T11:33:56.142Z,16.71
2023-04-04T11:36:37.786Z,15.66
2023-04-04T11:39:16.674Z,14.81
2023-04-04T11:42:15.908Z,16.82
2023-04-04T11:44:42.970Z,15.75
2023-04-04T11:47:13.485Z,15.76
2023-04-04T11:49:43.972Z,16.25
2023-04-04T11:52:15.921Z,16.56
2023-04-04T11:54:43.793Z,16.49
2023-04-04T11:57:15.069Z,17.07
2023-04-04T11:59:44.643Z,17.19
2023-04-04T12:02:12.209Z,17.50
2023-04-04T12:04:42.834Z,16.86
2023-04-04T12:07:11.925Z,16.19
2023-04-04T12:09:38.883Z,18.16
2023-04-04T12:12:07.677Z,17.87
2023-04-04T12:14:34.404Z,17.65
2023-04-04T12:17:02.721Z,15.03
2023-04-04T12:19:29.758Z,16.13
2023-04-04T12:21:57.691Z,15.70
2023-04-04T12:24:24.303Z,15.99
2023-04-04T12:26:52.968Z,14.63
2023-04-04T12:29:22.310Z,15.70
2023-04-04T12:31:49.865Z,14.98
2023-04-04T12:34:19.211Z,15.22
2023-04-04T12:36:48.061Z,16.76
2023-04-04T12:39:49.971Z,16.20
2023-04-04T12:42:24.179Z,16.71
2023-04-04T12:44:52.875Z,15.20
2023-04-04T12:47:21.164Z,15.79
2023-04-04T12:49:51.242Z,16.44
2023-04-04T12:52:22.038Z,14.45
2023-04-04T12:55:04.759Z,15.80
2023-04-04T12:57:34.432Z,16.42
2023-04-04T13:00:04.385Z,17.24
2023-04-04T13:02:30.827Z,17.67
2023-04-04T13:04:58.778Z,17.38
2023-04-04T13:07:33.800Z,17.07
2023-04-04T13:10:05.635Z,16.85
2023-04-04T13:13:00.173Z,15.78
2023-04-04T13:15:49.258Z,16.54
2023-04-04T13:18:25.641Z,17.54
2023-04-04T13:20:55.644Z,17.25
2023-04-04T13:23:22.812Z,15.33
2023-04-04T13:25:49.560Z,16.09
2023-04-04T13:28:16.221Z,16.50
2023-04-04T13:30:51.767Z,16.91
2023-04-04T13:33:20.305Z,15.91
2023-04-04T13:35:46.923Z,16.00
2023-04-04T13:38:13.791Z,15.75
2023-04-04T13:40:40.830Z,16.28
2023-04-04T13:43:08.223Z,15.35
2023-04-04T13:45:35.596Z,14.99
2023-04-04T13:48:08.083Z,15.46
2023-04-04T13:50:37.542Z,15.66
2023-04-04T13:53:04.642Z,15.38
2023-04-04T13:55:33.972Z,14.83
2023-04-04T13:58:00.599Z,15.27
2023-04-04T14:00:28.770Z,15.78
2023-04-04T14:02:57.643Z,15.03
2023-04-04T14:05:24.694Z,15.29
2023-04-04T14:07:51.173Z,15.38
2023-04-04T14:10:18.136Z,15.58
2023-04-04T14:12:47.086Z,16.08
2023-04-04T14:15:20.374Z,15.51
2023-04-04T14:17:54.767Z,15.39
2023-04-04T14:20:25.918Z,14.84
2023-04-04T14:23:18.960Z,14.64
2023-04-04T14:29:09.278Z,15.45
2023-04-04T14:31:36.302Z,15.14
2023-04-04T14:34:04.329Z,15.22
2023-04-04T14:36:41.988Z,15.24
2023-04-04T14:39:16.530Z,15.02
2023-04-04T14:41:43.859Z,14.60
2023-04-04T14:44:10.265Z,14.21
2023-04-04T14:46:39.349Z,14.45
2023-04-04T14:49:06.752Z,14.09
2023-04-04T14:51:35.456Z,14.33
2023-04-04T14:54:02.541Z,14.34
2023-04-04T14:56:29.417Z,14.34
2023-04-04T14:58:57.365Z,14.14
2023-04-04T15:01:24.007Z,13.95
2023-04-04T15:03:51.468Z,14.05
2023-04-04T15:06:18.010Z,13.80
2023-04-04T15:08:44.524Z,13.68
2023-04-04T15:11:15.843Z,13.10
2023-04-04T15:13:43.858Z,13.22
2023-04-04T15:16:10.359Z,13.36
2023-04-04T15:18:38.063Z,13.47
2023-04-04T15:21:05.525Z,13.46
2023-04-04T15:23:32.382Z,13.23
2023-04-04T15:25:58.850Z,13.45
2023-04-04T15:28:26.765Z,13.45
2023-04-04T15:30:53.558Z,13.61
2023-04-04T15:33:25.558Z,13.48
2023-04-04T15:35:55.578Z,13.30
2023-04-04T15:41:57.444Z,13.68
2023-04-04T15:44:24.861Z,13.77
2023-04-04T15:46:51.542Z,13.39
2023-04-04T15:49:21.143Z,13.33
2023-04-04T15:51:53.805Z,13.25
2023-04-04T15:54:20.239Z,13.49
2023-04-04T15:56:46.796Z,13.30
2023-04-04T15:59:13.415Z,12.77
2023-04-04T16:01:40.869Z,13.07
2023-04-04T16:04:07.467Z,13.03
2023-04-04T16:06:33.957Z,13.23
2023-04-04T16:09:00.862Z,13.13
2023-04-04T16:11:28.343Z,12.88
2023-04-04T16:13:55.189Z,12.73
2023-04-04T16:16:21.675Z,13.13
2023-04-04T16:18:48.295Z,13.10
2023-04-04T16:21:16.334Z,13.15
2023-04-04T16:23:43.808Z,12.89
2023-04-04T16:26:11.013Z,12.74
2023-04-04T16:28:37.846Z,12.99
2023-04-04T16:31:04.455Z,12.87
2023-04-04T16:33:30.899Z,12.96
2023-04-04T16:35:57.352Z,12.79
2023-04-04T16:38:23.986Z,12.65
2023-04-04T16:40:51.389Z,12.88
2023-04-04T16:43:17.869Z,12.84
2023-04-04T16:45:44.300Z,12.62
2023-04-04T16:48:10.904Z,12.69
2023-04-04T16:50:37.584Z,12.45
2023-04-04T16:53:06.543Z,12.51
2023-04-04T16:55:33.024Z,12.34
2023-04-04T16:57:59.521Z,12.22
2023-04-04T17:00:25.934Z,12.43
2023-04-04T17:02:52.442Z,12.25
2023-04-04T17:05:19.244Z,12.18
2023-04-04T17:07:47.226Z,12.16
2023-04-04T17:10:14.869Z,12.23
2023-04-04T17:12:45.709Z,12.16
2023-04-04T17:15:16.249Z,12.14
2023-04-04T17:17:47.057Z,12.02
2023-04-04T17:20:18.023Z,12.17
2023-04-04T17:22:46.296Z,12.13
2023-04-04T17:25:13.344Z,12.01
2023-04-04T17:27:40.275Z,11.80
2023-04-04T17:30:08.616Z,11.57
2023-04-04T17:32:36.762Z,11.64
2023-04-04T17:35:03.658Z,11.67
2023-04-04T17:37:32.491Z,11.59
2023-04-04T17:40:05.064Z,11.56
2023-04-04T17:42:31.948Z,11.54
2023-04-04T17:44:58.640Z,11.39
2023-04-04T17:47:25.358Z,11.13
2023-04-04T17:49:52.135Z,11.05
2023-04-04T17:52:19.325Z,11.02
2023-04-04T17:54:50.058Z,11.15
2023-04-04T17:57:16.753Z,11.05
2023-04-04T17:59:44.052Z,10.84
2023-04-04T18:02:11.533Z,10.80
2023-04-04T18:04:41.555Z,10.53
2023-04-04T18:07:13.178Z,10.50
2023-04-04T18:09:41.889Z,10.36
2023-04-04T18:12:13.687Z,10.27
2023-04-04T18:17:24.041Z,10.19
2023-04-04T18:19:51.218Z,10.10
2023-04-04T18:22:22.737Z,10.10
2023-04-04T18:24:50.767Z,10.00
2023-04-04T18:30:04.209Z,9.76
2023-04-04T18:32:31.276Z,9.63
2023-04-04T18:34:59.086Z,9.53
2023-04-04T18:37:26.880Z,9.35
2023-04-04T18:39:53.812Z,9.46
2023-04-04T18:42:20.641Z,9.47
2023-04-04T18:44:47.178Z,9.36
2023-04-04T18:47:13.783Z,9.33
2023-04-04T18:49:40.296Z,9.19
2023-04-04T18:52:06.816Z,9.18
2023-04-04T18:54:33.375Z,8.96
2023-04-04T18:57:02.607Z,9.02
2023-04-04T18:59:30.808Z,9.13
2023-04-04T19:01:58.071Z,9.18
2023-04-04T19:04:24.823Z,8.99
2023-04-04T19:06:53.422Z,8.98
2023-04-04T19:09:21.019Z,8.84
2023-04-04T19:11:51.213Z,8.84
2023-04-04T19:14:19.514Z,8.88
2023-04-04T19:16:47.141Z,8.73
2023-04-04T19:19:13.789Z,8.61
2023-04-04T19:21:40.451Z,8.71
2023-04-04T19:24:09.421Z,8.70
2023-04-04T19:26:36.106Z,8.63
2023-04-04T19:29:02.610Z,8.51
2023-04-04T19:31:32.914Z,8.67
2023-04-04T19:34:02.022Z,8.59
2023-04-04T19:36:33.612Z,8.44
2023-04-04T19:39:01.638Z,8.49
2023-04-04T19:41:35.543Z,8.49
2023-04-04T19:44:03.063Z,8.34
2023-04-04T19:46:33.251Z,8.25
2023-04-04T19:49:03.502Z,8.21
2023-04-04T19:51:30.141Z,8.14
2023-04-04T19:54:01.337Z,7.96
2023-04-04T19:56:29.987Z,8.26
2023-04-04T19:59:10.726Z,8.17
2023-04-04T20:01:59.764Z,8.09
2023-04-04T20:04:32.514Z,8.08
2023-04-04T20:07:07.872Z,8.06
2023-04-04T20:09:41.946Z,7.90
2023-04-04T20:12:12.582Z,7.77
2023-04-04T20:14:43.977Z,7.89
2023-04-04T20:17:12.103Z,7.79
2023-04-04T20:19:39.099Z,7.81
2023-04-04T20:22:11.472Z,7.77
2023-04-04T20:24:40.336Z,7.64
2023-04-04T20:27:12.783Z,7.60
2023-04-04T20:29:42.476Z,7.68
2023-04-04T20:32:11.955Z,7.65
2023-04-04T20:34:46.503Z,7.51
2023-04-04T20:37:20.362Z,7.62
2023-04-04T20:39:49.722Z,7.66
2023-04-04T20:42:31.377Z,7.36
2023-04-04T20:45:11.563Z,7.47
2023-04-04T20:47:53.923Z,7.51
2023-04-04T20:50:43.307Z,7.42
2023-04-04T20:53:24.273Z,7.43
2023-04-04T20:55:56.814Z,7.36
2023-04-04T20:58:30.784Z,7.23
2023-04-04T21:01:10.182Z,7.23
2023-04-04T21:03:48.778Z,7.25
2023-04-04T21:06:30.508Z,7.12
2023-04-04T21:09:07.006Z,7.20
2023-04-04T21:11:37.681Z,7.12
2023-04-04T21:14:08.163Z,7.12
2023-04-04T21:16:41.400Z,6.94
2023-04-04T21:19:24.560Z,6.89
2023-04-04T21:21:54.933Z,6.98
2023-04-04T21:24:25.792Z,6.95
2023-04-04T21:26:58.410Z,6.82
2023-04-04T21:29:30.000Z,6.93
2023-04-04T21:32:00.923Z,6.86
2023-04-04T21:34:30.926Z,6.82
2023-04-04T21:37:06.747Z,6.87
2023-04-04T21:39:38.847Z,6.74
2023-04-04T21:42:14.567Z,6.67
2023-04-04T21:44:50.198Z,6.67
2023-04-04T21:47:21.995Z,6.73
2023-04-04T21:49:55.493Z,6.70
2023-04-04T21:52:24.443Z,6.59
2023-04-04T21:54:55.579Z,6.56
2023-04-04T21:57:26.492Z,6.61
2023-04-04T21:59:54.131Z,6.55
2023-04-04T22:02:26.932Z,6.50
2023-04-04T22:04:59.922Z,6.44
2023-04-04T22:07:30.285Z,6.28
2023-04-04T22:10:01.840Z,6.27
2023-04-04T22:12:34.207Z,6.40
2023-04-04T22:15:04.502Z,6.30
2023-04-04T22:17:33.720Z,6.36
2023-04-04T22:20:11.884Z,6.23
2023-04-04T22:22:43.990Z,6.31
2023-04-04T22:25:12.027Z,6.24
2023-04-04T22:27:39.968Z,6.08
2023-04-04T22:30:11.204Z,6.23
2023-04-04T22:32:39.634Z,6.21
2023-04-04T22:35:07.775Z,6.12
2023-04-04T22:37:35.506Z,6.08
2023-04-04T22:40:02.743Z,6.15
2023-04-04T22:42:30.010Z,6.04
2023-04-04T22:44:58.733Z,6.04
2023-04-04T22:47:29.334Z,5.92
2023-04-04T22:49:56.733Z,6.00
2023-04-04T22:52:29.071Z,6.00
2023-04-04T22:54:56.132Z,5.97
2023-04-04T22:57:23.322Z,5.87
2023-04-04T22:59:52.818Z,5.92
2023-04-04T23:02:25.000Z,5.75
2023-04-04T23:05:01.438Z,5.79
2023-04-04T23:07:29.168Z,5.62
2023-04-04T23:09:57.744Z,5.51
2023-04-04T23:12:31.066Z,5.59
2023-04-04T23:14:59.599Z,5.54
2023-04-04T23:17:33.097Z,5.61
2023-04-04T23:20:10.753Z,5.60
2023-04-04T23:22:39.151Z,5.54
2023-04-04T23:25:08.077Z,5.46
2023-04-04T23:27:35.896Z,5.44
2023-04-04T23:30:07.004Z,5.41
2023-04-04T23:32:34.671Z,5.41
2023-04-04T23:35:01.559Z,5.25
2023-04-04T23:37:28.457Z,5.42
2023-04-04T23:39:55.393Z,5.35
2023-04-04T23:42:22.993Z,5.31
2023-04-04T23:44:52.742Z,5.30
2023-04-04T23:47:23.438Z,5.24
2023-04-04T23:49:50.987Z,5.25
2023-04-04T23:52:19.289Z,5.15
2023-04-04T23:54:47.024Z,5.05
2023-04-04T23:57:17.032Z,5.15
2023-04-04T23:59:51.829Z,4.84
